Aeroporto :
LOGIN :

Iscrizione | Disclaimer

   EN    FR    IT 

 










Sommario :    VFR   VFR Marginale   IFR   IFR Intensivo   IFR Molto Intensivo
Visibilità : 
Base nubi : 
>= 8 km
>= 3000ft
5 / 8 km
1000 / 3000 ft
1500m / 5 km
500 / 1000 ft
800 / 1500m
200 / 500 ft
< 800m
< 200 ft
Simboli :   Temporali  Nebbia  Neve Forte  Precipitazioni Forti  Vento > 20 kt
SIGMETs :   Varie  Temporali  Ghiacco  Turbolenza  Onda orograficha  Ceneri Vulcaniche






- Altitudine del aeroporto : 17 ft
- Codice IATA : CPH


EKCH - København - Kastrup (Copenhagen)

ULTIMO METAR :
  • 251550Z 23030G41KT 9999 -SHRA SCT020CB BKN030 05/02 Q0981 TEMPO 23030G45KT 4000 SHRA

METARs OBSOLETI :
  • 251520Z 22027G41KT 9999 -SHRA SCT020CB BKN030 05/02 Q0981 TEMPO 23030G45KT 4000 SHRA BKN012
  • 251450Z 21025G40KT 9999 -SHRA SCT020CB BKN026 05/02 Q0982 TEMPO 23030G45KT 4000 SHRA BKN012
  • 251420Z 21022G38KT 8000 -SHRA SCT020CB BKN026 05/03 Q0983 TEMPO 23030G45KT 4000 SHRA BKN012
  • 251350Z 21021KT 9999 -SHRA FEW020CB BKN026 06/03 Q0984 TEMPO 23022G35KT 4000 SHRA BKN012 SCT020CB
  • 251320Z 22021KT 9999 -SHRA FEW020CB BKN026 06/02 Q0984 TEMPO 23022G35KT 4000 SHRA BKN012 SCT020CB

TAF TAF EKCH
Valido dal 25 a 12 ore il 26 a 12 ore UTC


251111Z 2512/2612 23020KT 9999 BKN025
TEMPO 2512/2516 22022G35KT 4000 SHRAGS BKN012 SCT020CB
TEMPO 2516/2522 24030G45KT 3000 RASN BKN010 BKN020CB
TEMPO 2522/2603 25025G35KT 3000 RASN BKN010 BKN020CB
BECMG 2603/2605 27018G28KT 3000 SNRA BKN006 SCT020CB
BECMG 2605/2607 33015KT 9999 NSW BKN020



MetMap, La meteo Aeronautica in un colpo d'occhio ! - Copyright ORBIFLY Dicembre 2007 - Disclaimer

ORBIFLY MET'MAP TEAM :

Programmazione e sviluppo : Alexandra Zaïnal
Concezione : Baudouin d'Aumeries
Aiuto per la programmazione : Marc-Olivier Méhu
Supporto tecnico e logistico : Manuel Goepfert
Aiuto per la traduzione : Arnaldo La Scala

Contatto : metmap@orbifly.com




FONTI E CREDITI :

   NOAA